createdAt,value
2019-05-06T00:00:18.103Z,65.39
2019-05-06T00:01:18.102Z,65.48
2019-05-06T00:02:17.985Z,65.20
2019-05-06T00:03:17.983Z,65.48
2019-05-06T00:04:17.867Z,65.39
2019-05-06T00:05:17.864Z,65.67
2019-05-06T00:06:17.747Z,65.29
2019-05-06T00:07:17.745Z,65.39
2019-05-06T00:08:17.628Z,65.48
2019-05-06T00:09:17.630Z,65.48
2019-05-06T00:10:17.509Z,65.48
2019-05-06T00:11:17.506Z,65.29
2019-05-06T00:12:17.391Z,65.58
2019-05-06T00:13:17.387Z,65.48
2019-05-06T00:14:17.273Z,65.58
2019-05-06T00:15:17.269Z,65.29
2019-05-06T00:16:17.152Z,65.29
2019-05-06T00:17:17.150Z,65.29
2019-05-06T00:18:17.033Z,65.39
2019-05-06T00:19:17.031Z,65.29
2019-05-06T00:20:16.914Z,65.48
2019-05-06T00:21:16.912Z,65.48
2019-05-06T00:22:16.912Z,65.67
2019-05-06T00:23:16.794Z,65.48
2019-05-06T00:24:16.794Z,65.20
2019-05-06T00:25:16.884Z,65.48
2019-05-06T00:26:16.674Z,65.48
2019-05-06T00:27:16.561Z,65.58
2019-05-06T00:28:16.557Z,65.58
2019-05-06T00:29:16.439Z,65.10
2019-05-06T00:30:16.437Z,65.29
2019-05-06T00:31:16.719Z,65.48
2019-05-06T00:32:16.317Z,65.10
2019-05-06T00:33:16.200Z,65.67
2019-05-06T00:34:16.198Z,65.39
2019-05-06T00:35:16.081Z,65.20
2019-05-06T00:36:16.080Z,65.20
2019-05-06T00:37:15.962Z,65.48
2019-05-06T00:38:15.960Z,65.20
2019-05-06T00:39:15.843Z,65.48
2019-05-06T00:40:15.841Z,65.20
2019-05-06T00:41:15.725Z,65.20
2019-05-06T00:42:15.724Z,65.48
2019-05-06T00:43:15.613Z,65.48
2019-05-06T00:44:15.602Z,65.48
2019-05-06T00:45:15.489Z,65.29
2019-05-06T00:46:15.485Z,65.10
2019-05-06T00:47:15.367Z,65.29
2019-05-06T00:48:15.368Z,65.10
2019-05-06T00:49:15.249Z,65.20
2019-05-06T00:50:15.246Z,65.39
2019-05-06T00:51:15.131Z,65.58
2019-05-06T00:52:15.128Z,65.48
2019-05-06T00:53:15.127Z,65.48
2019-05-06T00:54:15.009Z,65.67
2019-05-06T00:55:15.007Z,65.67
2019-05-06T00:56:14.889Z,65.67
2019-05-06T00:57:14.888Z,65.58
2019-05-06T00:58:14.774Z,65.20
2019-05-06T00:59:14.777Z,65.48
2019-05-06T01:00:14.653Z,65.58
2019-05-06T01:01:25.923Z,65.77
2019-05-06T01:02:14.535Z,65.48
2019-05-06T01:03:14.531Z,65.58
2019-05-06T01:04:14.416Z,65.58
2019-05-06T01:05:14.413Z,65.58
2019-05-06T01:06:14.346Z,65.48
2019-05-06T01:07:14.294Z,65.48
2019-05-06T01:08:14.263Z,65.39
2019-05-06T01:09:14.194Z,65.48
2019-05-06T01:10:14.430Z,65.58
2019-05-06T01:11:14.464Z,65.48
2019-05-06T01:12:14.323Z,65.55
2019-05-06T01:13:14.584Z,65.58
2019-05-06T01:14:14.807Z,65.48
2019-05-06T01:15:14.240Z,65.67
2019-05-06T01:16:15.625Z,65.77
2019-05-06T01:17:13.699Z,65.58
2019-05-06T01:18:13.816Z,65.58
2019-05-06T01:19:14.150Z,65.48
2019-05-06T01:20:13.978Z,65.48
2019-05-06T01:21:14.531Z,65.67
2019-05-06T01:22:14.044Z,65.67
2019-05-06T01:23:14.384Z,65.58
2019-05-06T01:24:14.679Z,65.58
2019-05-06T01:25:14.207Z,65.58
2019-05-06T01:26:15.056Z,65.39
2019-05-06T01:27:14.539Z,65.77
2019-05-06T01:28:13.814Z,65.58
2019-05-06T01:29:14.547Z,65.58
2019-05-06T01:30:13.740Z,65.58
2019-05-06T01:31:13.982Z,65.58
2019-05-06T01:32:13.925Z,65.77
2019-05-06T01:33:14.481Z,65.55
2019-05-06T01:34:13.780Z,65.58
2019-05-06T01:35:14.065Z,65.58
2019-05-06T01:36:14.105Z,65.58
2019-05-06T01:37:14.232Z,65.58
2019-05-06T01:38:14.569Z,65.58
2019-05-06T01:39:13.855Z,65.67
2019-05-06T01:40:13.870Z,65.58
2019-05-06T01:41:13.603Z,65.36
2019-05-06T01:42:13.876Z,65.77
2019-05-06T01:43:14.376Z,65.58
2019-05-06T01:44:13.676Z,65.39
2019-05-06T01:45:14.051Z,65.58
2019-05-06T01:46:13.908Z,65.55
2019-05-06T01:47:11.918Z,65.64
2019-05-06T01:48:14.272Z,65.55
2019-05-06T01:49:13.641Z,65.67
2019-05-06T01:50:13.917Z,65.55
2019-05-06T01:51:11.677Z,65.55
2019-05-06T01:52:11.682Z,65.55
2019-05-06T01:53:11.560Z,65.58
2019-05-06T01:54:11.556Z,65.64
2019-05-06T01:55:11.439Z,65.67
2019-05-06T01:56:11.437Z,65.58
2019-05-06T01:57:13.582Z,65.64
2019-05-06T01:58:11.317Z,65.45
2019-05-06T01:59:11.320Z,65.55
2019-05-06T02:00:11.200Z,65.36
2019-05-06T02:01:11.199Z,65.55
2019-05-06T02:02:11.082Z,65.55
2019-05-06T02:03:11.080Z,65.45
2019-05-06T02:04:10.962Z,65.55
2019-05-06T02:05:10.998Z,65.73
2019-05-06T02:06:10.843Z,65.45
2019-05-06T02:07:10.842Z,65.45
2019-05-06T02:08:10.724Z,65.45
2019-05-06T02:09:10.728Z,65.77
2019-05-06T02:10:10.608Z,65.64
2019-05-06T02:11:10.603Z,65.55
2019-05-06T02:12:10.491Z,65.64
2019-05-06T02:13:10.487Z,65.48
2019-05-06T02:14:10.369Z,65.45
2019-05-06T02:15:10.367Z,65.48
2019-05-06T02:16:10.250Z,65.73
2019-05-06T02:17:10.247Z,65.64
2019-05-06T02:18:10.131Z,65.64
2019-05-06T02:19:10.128Z,65.58
2019-05-06T02:20:10.011Z,65.55
2019-05-06T02:21:10.008Z,65.16
2019-05-06T02:22:09.895Z,65.45
2019-05-06T02:23:09.892Z,65.73
2019-05-06T02:24:09.773Z,65.45
2019-05-06T02:25:09.771Z,65.55
2019-05-06T02:26:09.654Z,65.55
2019-05-06T02:27:09.653Z,65.55
2019-05-06T02:28:09.535Z,65.64
2019-05-06T02:29:09.532Z,65.73
2019-05-06T02:30:09.416Z,65.55
2019-05-06T02:31:09.421Z,65.55
2019-05-06T02:32:24.425Z,65.83
2019-05-06T02:33:09.295Z,65.64
2019-05-06T02:34:09.295Z,65.64
2019-05-06T02:35:09.177Z,65.64
2019-05-06T02:36:09.186Z,65.55
2019-05-06T02:37:09.059Z,65.45
2019-05-06T02:38:09.057Z,65.16
2019-05-06T02:39:08.939Z,65.45
2019-05-06T02:40:08.938Z,65.55
2019-05-06T02:41:08.865Z,65.64
2019-05-06T02:42:08.819Z,65.45
2019-05-06T02:43:08.703Z,65.45
2019-05-06T02:44:11.025Z,65.64
2019-05-06T02:45:08.585Z,65.64
2019-05-06T02:46:08.585Z,65.55
2019-05-06T02:47:08.464Z,65.73
2019-05-06T02:48:08.466Z,65.55
2019-05-06T02:49:08.362Z,65.45
2019-05-06T02:50:08.344Z,65.73
2019-05-06T02:51:08.227Z,65.45
2019-05-06T02:52:08.225Z,65.36
2019-05-06T02:53:08.106Z,65.64
2019-05-06T02:54:08.107Z,65.73
2019-05-06T02:55:07.994Z,65.55
2019-05-06T02:56:07.987Z,65.73
2019-05-06T02:57:07.988Z,65.45
2019-05-06T02:58:07.867Z,65.55
2019-05-06T02:59:07.752Z,65.64
2019-05-06T03:00:07.750Z,65.73
2019-05-06T03:01:07.632Z,65.45
2019-05-06T03:02:07.632Z,65.64
2019-05-06T03:03:07.513Z,65.16
2019-05-06T03:04:07.510Z,65.45
2019-05-06T03:05:07.397Z,65.55
2019-05-06T03:06:08.121Z,65.55
2019-05-06T03:07:07.274Z,65.16
2019-05-06T03:08:07.274Z,65.16
2019-05-06T03:09:07.282Z,65.36
2019-05-06T03:10:07.163Z,65.26
2019-05-06T03:11:07.155Z,65.26
2019-05-06T03:12:07.038Z,65.16
2019-05-06T03:13:07.038Z,65.16
2019-05-06T03:14:06.915Z,65.45
2019-05-06T03:15:06.915Z,65.07
2019-05-06T03:16:06.797Z,65.07
2019-05-06T03:17:06.797Z,65.45
2019-05-06T03:18:06.684Z,65.45
2019-05-06T03:19:06.675Z,65.45
2019-05-06T03:20:06.566Z,65.16
2019-05-06T03:21:06.594Z,65.07
2019-05-06T03:22:06.441Z,65.07
2019-05-06T03:23:06.441Z,65.45
2019-05-06T03:24:07.373Z,65.45
2019-05-06T03:25:07.062Z,65.26
2019-05-06T03:26:06.946Z,65.07
2019-05-06T03:27:06.209Z,65.26
2019-05-06T03:28:06.099Z,65.16
2019-05-06T03:29:06.084Z,65.45
2019-05-06T03:30:05.967Z,65.07
2019-05-06T03:31:07.222Z,65.07
2019-05-06T03:32:07.477Z,65.45
2019-05-06T03:33:40.242Z,65.45
2019-05-06T03:34:29.063Z,65.45
2019-05-06T03:35:24.855Z,65.16
2019-05-06T03:36:14.219Z,65.36
2019-05-06T03:37:07.775Z,65.64
2019-05-06T03:38:05.489Z,65.55
2019-05-06T03:39:05.487Z,65.64
2019-05-06T03:40:05.371Z,65.64
2019-05-06T03:41:05.372Z,65.64
2019-05-06T03:42:05.250Z,65.36
2019-05-06T03:43:05.250Z,65.55
2019-05-06T03:44:05.133Z,65.45
2019-05-06T03:45:05.130Z,65.55
2019-05-06T03:46:05.159Z,65.55
2019-05-06T03:47:05.785Z,65.45
2019-05-06T03:48:05.997Z,65.45
2019-05-06T03:49:04.893Z,65.55
2019-05-06T03:50:04.989Z,65.55
2019-05-06T03:51:04.773Z,65.45
2019-05-06T03:52:04.773Z,66.40
2019-05-06T03:53:04.654Z,65.55
2019-05-06T03:54:04.655Z,65.45
2019-05-06T03:55:04.565Z,65.64
2019-05-06T03:56:04.537Z,65.45
2019-05-06T03:57:04.418Z,66.21
2019-05-06T03:58:04.441Z,65.73
2019-05-06T03:59:04.306Z,66.31
2019-05-06T04:00:05.078Z,65.64
2019-05-06T04:01:04.180Z,65.92
2019-05-06T04:02:05.269Z,66.11
2019-05-06T04:03:04.060Z,66.02
2019-05-06T04:04:04.065Z,66.21
2019-05-06T04:05:04.413Z,66.21
2019-05-06T04:06:04.692Z,66.11
2019-05-06T04:07:03.824Z,66.11
2019-05-06T04:08:04.094Z,66.11
2019-05-06T04:09:03.916Z,66.21
2019-05-06T04:10:04.002Z,66.11
2019-05-06T04:11:03.594Z,66.21
2019-05-06T04:12:03.796Z,66.21
2019-05-06T04:13:04.332Z,66.21
2019-05-06T04:14:03.463Z,66.21
2019-05-06T04:15:04.217Z,66.02
2019-05-06T04:16:03.911Z,66.02
2019-05-06T04:17:03.485Z,66.02
2019-05-06T04:18:04.074Z,66.02
2019-05-06T04:19:04.143Z,66.02
2019-05-06T04:20:03.963Z,65.92
2019-05-06T04:21:03.750Z,65.92
2019-05-06T04:22:03.653Z,65.83
2019-05-06T04:23:06.017Z,65.92
2019-05-06T04:24:04.157Z,66.02
2019-05-06T04:25:04.031Z,65.92
2019-05-06T04:26:17.269Z,65.64
2019-05-06T04:27:03.260Z,65.64
2019-05-06T04:28:03.012Z,65.73
2019-05-06T04:29:03.959Z,65.64
2019-05-06T04:30:04.625Z,65.73
2019-05-06T04:31:05.285Z,65.73
2019-05-06T04:32:03.468Z,65.92
2019-05-06T04:33:03.271Z,65.83
2019-05-06T04:34:13.846Z,66.11
2019-05-06T04:35:04.410Z,66.11
2019-05-06T04:36:03.656Z,66.11
2019-05-06T04:37:03.542Z,66.21
2019-05-06T04:38:03.276Z,66.11
2019-05-06T04:39:04.198Z,66.50
2019-05-06T04:40:04.444Z,66.40
2019-05-06T04:41:02.965Z,66.40
2019-05-06T04:42:03.469Z,66.50
2019-05-06T04:43:03.632Z,66.50
2019-05-06T04:44:02.882Z,66.40
2019-05-06T04:45:04.607Z,66.40
2019-05-06T04:46:03.235Z,66.50
2019-05-06T04:47:05.025Z,66.50
2019-05-06T04:48:03.560Z,66.40
2019-05-06T04:49:03.987Z,66.21
2019-05-06T04:50:04.675Z,66.31
2019-05-06T04:51:03.289Z,66.40
2019-05-06T04:52:03.611Z,66.40
2019-05-06T04:53:04.789Z,66.40
2019-05-06T04:54:04.006Z,66.40
2019-05-06T04:55:03.461Z,66.40
2019-05-06T04:56:03.795Z,65.92
2019-05-06T04:57:00.964Z,65.92
2019-05-06T04:58:03.806Z,65.83
2019-05-06T04:59:05.753Z,65.92
2019-05-06T05:00:03.819Z,65.92
2019-05-06T05:01:03.798Z,66.21
2019-05-06T05:02:02.701Z,66.02
2019-05-06T05:03:03.035Z,66.50
2019-05-06T05:04:03.265Z,66.40
2019-05-06T05:05:03.780Z,66.40
2019-05-06T05:06:03.041Z,66.31
2019-05-06T05:07:00.369Z,66.31
2019-05-06T05:08:02.454Z,66.59
2019-05-06T05:09:02.564Z,66.31
2019-05-06T05:10:03.233Z,66.21
2019-05-06T05:11:00.131Z,66.11
2019-05-06T05:12:02.520Z,66.50
2019-05-06T05:13:00.013Z,66.69
2019-05-06T05:14:02.595Z,66.40
2019-05-06T05:14:59.893Z,66.40
2019-05-06T05:16:02.138Z,66.59
2019-05-06T05:17:02.043Z,66.59
2019-05-06T05:17:59.773Z,66.59
2019-05-06T05:18:59.655Z,66.78
2019-05-06T05:20:01.971Z,66.21
2019-05-06T05:20:59.539Z,66.78
2019-05-06T05:21:59.534Z,66.78
2019-05-06T05:22:59.418Z,66.88
2019-05-06T05:23:59.416Z,66.78
2019-05-06T05:24:59.298Z,66.50
2019-05-06T05:25:59.300Z,66.78
2019-05-06T05:26:59.182Z,66.59
2019-05-06T05:27:59.185Z,66.69
2019-05-06T05:28:59.061Z,66.97
2019-05-06T05:29:59.058Z,66.40
2019-05-06T05:30:58.943Z,66.88
2019-05-06T05:31:58.941Z,66.69
2019-05-06T05:32:58.824Z,66.88
2019-05-06T05:33:58.820Z,67.55
2019-05-06T05:34:58.704Z,67.55
2019-05-06T05:35:58.752Z,67.35
2019-05-06T05:36:58.587Z,67.35
2019-05-06T05:37:58.582Z,67.35
2019-05-06T05:38:58.492Z,67.35
2019-05-06T05:39:58.465Z,67.26
2019-05-06T05:40:58.353Z,66.97
2019-05-06T05:41:58.345Z,67.16
2019-05-06T05:42:58.228Z,67.26
2019-05-06T05:43:58.227Z,66.97
2019-05-06T05:44:58.225Z,66.88
2019-05-06T05:45:58.143Z,67.07
2019-05-06T05:46:58.107Z,66.97
2019-05-06T05:47:57.987Z,67.16
2019-05-06T05:48:57.988Z,67.16
2019-05-06T05:49:57.870Z,67.07
2019-05-06T05:50:57.869Z,66.78
2019-05-06T05:51:57.750Z,66.88
2019-05-06T05:52:57.789Z,66.97
2019-05-06T05:53:57.632Z,66.88
2019-05-06T05:54:57.630Z,67.07
2019-05-06T05:55:57.513Z,66.97
2019-05-06T05:56:57.512Z,66.88
2019-05-06T05:57:57.394Z,67.07
2019-05-06T05:58:57.393Z,67.35
2019-05-06T05:59:57.275Z,67.35
2019-05-06T06:00:57.274Z,67.45
2019-05-06T06:01:57.157Z,67.64
2019-05-06T06:02:57.156Z,67.45
2019-05-06T06:03:57.038Z,67.45
2019-05-06T06:04:57.720Z,67.45
2019-05-06T06:05:56.919Z,67.55
2019-05-06T06:06:56.916Z,67.55
2019-05-06T06:07:56.799Z,67.55
2019-05-06T06:08:56.796Z,67.45
2019-05-06T06:09:56.682Z,67.45
2019-05-06T06:10:56.691Z,67.35
2019-05-06T06:11:56.569Z,67.55
2019-05-06T06:12:56.559Z,67.55
2019-05-06T06:13:56.445Z,67.55
2019-05-06T06:14:56.529Z,67.45
2019-05-06T06:15:56.325Z,67.55
2019-05-06T06:16:56.322Z,67.64
2019-05-06T06:17:56.205Z,67.83
2019-05-06T06:18:56.202Z,67.74
2019-05-06T06:19:56.087Z,67.83
2019-05-06T06:20:56.119Z,67.64
2019-05-06T06:21:55.967Z,67.74
2019-05-06T06:22:55.964Z,67.74
2019-05-06T06:23:55.848Z,67.64
2019-05-06T06:24:55.845Z,67.83
2019-05-06T06:25:55.845Z,67.83
2019-05-06T06:26:55.725Z,67.64
2019-05-06T06:27:55.726Z,67.35
2019-05-06T06:28:55.606Z,67.64
2019-05-06T06:29:55.610Z,67.55
2019-05-06T06:30:55.491Z,67.55
2019-05-06T06:31:55.488Z,68.02
2019-05-06T06:32:55.371Z,68.02
2019-05-06T06:33:55.372Z,68.12
2019-05-06T06:35:07.436Z,67.83
2019-05-06T06:35:55.250Z,68.02
2019-05-06T06:36:55.133Z,67.55
2019-05-06T06:37:55.134Z,67.55
2019-05-06T06:38:55.015Z,67.83
2019-05-06T06:39:55.015Z,67.55
2019-05-06T06:40:55.698Z,68.12
2019-05-06T06:41:54.893Z,67.93
2019-05-06T06:42:54.777Z,67.83
2019-05-06T06:43:54.775Z,67.83
2019-05-06T06:44:54.659Z,67.93
2019-05-06T06:45:54.656Z,68.12
2019-05-06T06:46:54.545Z,68.02
2019-05-06T06:47:54.537Z,67.93
2019-05-06T06:48:54.419Z,68.12
2019-05-06T06:49:54.418Z,68.02
2019-05-06T06:50:54.300Z,67.93
2019-05-06T06:51:54.298Z,67.55
2019-05-06T06:52:54.183Z,67.93
2019-05-06T06:53:54.179Z,67.93
2019-05-06T06:54:54.062Z,67.74
2019-05-06T06:55:54.059Z,67.74
2019-05-06T06:57:05.213Z,67.55
2019-05-06T06:57:53.941Z,67.55
2019-05-06T06:58:53.823Z,67.83
2019-05-06T06:59:53.822Z,67.74
2019-05-06T07:00:53.705Z,67.64
2019-05-06T07:01:53.702Z,67.93
2019-05-06T07:02:53.585Z,67.55
2019-05-06T07:03:53.584Z,67.64
2019-05-06T07:04:53.468Z,67.93
2019-05-06T07:05:53.465Z,67.74
2019-05-06T07:06:53.350Z,67.55
2019-05-06T07:07:53.345Z,67.93
2019-05-06T07:08:53.346Z,67.55
2019-05-06T07:09:53.227Z,67.83
2019-05-06T07:10:53.227Z,67.55
2019-05-06T07:11:53.108Z,67.93
2019-05-06T07:12:53.307Z,67.55
2019-05-06T07:13:53.170Z,67.64
2019-05-06T07:14:53.000Z,67.93
2019-05-06T07:15:52.870Z,68.02
2019-05-06T07:16:53.418Z,68.02
2019-05-06T07:17:52.759Z,68.50
2019-05-06T07:18:52.830Z,68.30
2019-05-06T07:19:52.796Z,68.02
2019-05-06T07:20:52.720Z,67.83
2019-05-06T07:21:52.514Z,67.74
2019-05-06T07:22:52.981Z,67.74
2019-05-06T07:23:53.024Z,67.93
2019-05-06T07:24:52.875Z,68.40
2019-05-06T07:25:53.772Z,68.50
2019-05-06T07:26:52.506Z,68.50
2019-05-06T07:27:52.951Z,68.12
2019-05-06T07:28:52.637Z,68.12
2019-05-06T07:29:52.380Z,68.21
2019-05-06T07:30:52.250Z,68.12
2019-05-06T07:31:53.490Z,68.21
2019-05-06T07:32:52.758Z,68.12
2019-05-06T07:33:52.318Z,68.12
2019-05-06T07:34:53.113Z,68.30
2019-05-06T07:35:53.073Z,68.12
2019-05-06T07:36:52.463Z,68.40
2019-05-06T07:37:53.024Z,68.78
2019-05-06T07:38:52.779Z,68.78
2019-05-06T07:39:52.858Z,68.59
2019-05-06T07:40:52.985Z,68.59
2019-05-06T07:41:53.525Z,68.59
2019-05-06T07:42:52.664Z,68.59
2019-05-06T07:43:52.536Z,68.69
2019-05-06T07:44:52.894Z,68.69
2019-05-06T07:45:53.099Z,68.50
2019-05-06T07:46:52.474Z,68.78
2019-05-06T07:47:53.092Z,68.88
2019-05-06T07:48:51.892Z,68.59
2019-05-06T07:49:53.065Z,68.98
2019-05-06T07:50:52.073Z,68.88
2019-05-06T07:51:52.892Z,68.78
2019-05-06T07:52:52.729Z,68.98
2019-05-06T07:53:52.469Z,68.98
2019-05-06T07:54:53.161Z,68.98
2019-05-06T07:55:52.479Z,68.98
2019-05-06T07:56:52.619Z,69.07
2019-05-06T07:57:52.438Z,68.98
2019-05-06T07:58:52.772Z,68.88
2019-05-06T07:59:52.355Z,68.88
2019-05-06T08:00:52.355Z,68.88
2019-05-06T08:01:50.251Z,69.07
2019-05-06T08:02:52.003Z,68.98
2019-05-06T08:03:50.133Z,68.88
2019-05-06T08:04:50.015Z,68.98
2019-05-06T08:05:55.793Z,68.98
2019-05-06T08:06:52.198Z,69.07
2019-05-06T08:07:49.896Z,69.07
2019-05-06T08:08:49.778Z,68.98
2019-05-06T08:09:49.775Z,68.98
2019-05-06T08:10:49.657Z,68.88
2019-05-06T08:11:49.656Z,68.98
2019-05-06T08:12:49.541Z,68.98
2019-05-06T08:13:49.538Z,68.98
2019-05-06T08:14:49.419Z,68.98
2019-05-06T08:15:49.417Z,68.59
2019-05-06T08:16:49.300Z,68.98
2019-05-06T08:17:49.300Z,68.88
2019-05-06T08:18:49.182Z,68.98
2019-05-06T08:19:49.180Z,69.07
2019-05-06T08:20:49.063Z,68.69
2019-05-06T08:21:49.066Z,68.59
2019-05-06T08:22:48.979Z,69.07
2019-05-06T08:23:48.942Z,69.07
2019-05-06T08:24:48.860Z,68.88
2019-05-06T08:25:48.821Z,68.78
2019-05-06T08:26:48.706Z,68.69
2019-05-06T08:27:49.635Z,69.07
2019-05-06T08:28:48.586Z,69.17
2019-05-06T08:29:48.584Z,68.78
2019-05-06T08:30:48.481Z,68.88
2019-05-06T08:31:48.466Z,68.88
2019-05-06T08:32:48.348Z,69.17
2019-05-06T08:33:48.345Z,69.07
2019-05-06T08:34:48.346Z,68.98
2019-05-06T08:35:48.227Z,68.78
2019-05-06T08:36:48.230Z,68.69
2019-05-06T08:37:48.108Z,69.07
2019-05-06T08:38:48.108Z,69.07
2019-05-06T08:39:47.990Z,69.07
2019-05-06T08:40:47.991Z,68.78
2019-05-06T08:41:47.871Z,69.35
2019-05-06T08:42:47.870Z,69.26
2019-05-06T08:43:47.752Z,69.45
2019-05-06T08:44:47.752Z,69.17
2019-05-06T08:45:47.634Z,69.07
2019-05-06T08:46:47.632Z,69.17
2019-05-06T08:47:47.517Z,69.35
2019-05-06T08:48:47.513Z,69.35
2019-05-06T08:49:49.326Z,69.26
2019-05-06T08:50:47.398Z,69.07
2019-05-06T08:51:47.277Z,69.26
2019-05-06T08:52:47.275Z,69.54
2019-05-06T08:53:47.158Z,68.98
2019-05-06T08:54:47.158Z,69.26
2019-05-06T08:55:47.040Z,69.26
2019-05-06T08:56:47.037Z,70.02
2019-05-06T08:57:46.920Z,69.17
2019-05-06T08:58:46.926Z,69.64
2019-05-06T08:59:46.801Z,69.74
2019-05-06T09:00:46.799Z,69.26
2019-05-06T09:01:46.683Z,69.83
2019-05-06T09:02:46.680Z,69.45
2019-05-06T09:03:46.563Z,69.26
2019-05-06T09:04:46.565Z,69.83
2019-05-06T09:05:46.445Z,69.93
2019-05-06T09:06:46.444Z,70.02
2019-05-06T09:07:46.325Z,69.54
2019-05-06T09:08:46.322Z,69.83
2019-05-06T09:09:46.208Z,69.83
2019-05-06T09:10:46.205Z,69.74
2019-05-06T09:11:46.089Z,69.26
2019-05-06T09:12:46.085Z,69.17
2019-05-06T09:13:45.972Z,69.17
2019-05-06T09:14:45.965Z,69.26
2019-05-06T09:15:45.849Z,69.35
2019-05-06T09:16:45.846Z,69.35
2019-05-06T09:17:45.847Z,68.88
2019-05-06T09:18:45.729Z,69.07
2019-05-06T09:19:45.729Z,69.26
2019-05-06T09:20:45.608Z,68.88
2019-05-06T09:21:46.528Z,68.98
2019-05-06T09:22:45.494Z,69.17
2019-05-06T09:23:45.491Z,69.35
2019-05-06T09:24:45.372Z,69.01
2019-05-06T09:25:45.370Z,69.01
2019-05-06T09:26:45.265Z,69.10
2019-05-06T09:27:45.251Z,68.98
2019-05-06T09:28:45.169Z,69.01
2019-05-06T09:29:45.134Z,68.98
2019-05-06T09:30:45.015Z,69.07
2019-05-06T09:31:45.016Z,68.88
2019-05-06T09:32:44.895Z,69.10
2019-05-06T09:33:44.894Z,69.26
2019-05-06T09:34:44.777Z,69.35
2019-05-06T09:35:44.779Z,69.29
2019-05-06T09:36:51.710Z,69.45
2019-05-06T09:37:44.656Z,68.98
2019-05-06T09:38:44.542Z,69.10
2019-05-06T09:39:44.598Z,69.01
2019-05-06T09:40:44.460Z,68.91
2019-05-06T09:41:46.761Z,68.91
2019-05-06T09:42:44.303Z,69.10
2019-05-06T09:43:44.302Z,69.01
2019-05-06T09:44:44.186Z,68.91
2019-05-06T09:45:44.180Z,68.91
2019-05-06T09:46:44.063Z,69.10
2019-05-06T09:47:44.061Z,68.82
2019-05-06T09:48:43.945Z,68.91
2019-05-06T09:49:43.943Z,69.20
2019-05-06T09:50:46.216Z,68.63
2019-05-06T09:51:43.826Z,68.82
2019-05-06T09:52:43.707Z,68.72
2019-05-06T09:53:43.703Z,68.91
2019-05-06T09:54:43.590Z,68.63
2019-05-06T09:55:43.584Z,68.72
2019-05-06T09:56:43.471Z,68.72
2019-05-06T09:57:43.465Z,68.63
2019-05-06T09:58:43.358Z,68.91
2019-05-06T09:59:43.347Z,68.72
2019-05-06T10:00:43.350Z,68.44
2019-05-06T10:01:43.733Z,68.24
2019-05-06T10:02:43.229Z,68.15
2019-05-06T10:03:43.114Z,68.15
2019-05-06T10:04:43.109Z,68.15
2019-05-06T10:05:42.996Z,68.24
2019-05-06T10:06:55.663Z,68.15
2019-05-06T10:07:42.874Z,68.53
2019-05-06T10:08:42.897Z,68.15
2019-05-06T10:09:43.414Z,68.15
2019-05-06T10:10:55.924Z,68.34
2019-05-06T10:11:42.634Z,68.24
2019-05-06T10:12:42.632Z,68.15
2019-05-06T10:13:43.138Z,68.15
2019-05-06T10:14:43.354Z,68.53
2019-05-06T10:15:42.981Z,68.53
2019-05-06T10:16:43.052Z,68.44
2019-05-06T10:17:42.884Z,68.34
2019-05-06T10:18:42.285Z,68.53
2019-05-06T10:19:42.900Z,68.53
2019-05-06T10:20:42.894Z,68.63
2019-05-06T10:21:42.712Z,68.44
2019-05-06T10:22:43.033Z,68.63
2019-05-06T10:23:42.413Z,68.53
2019-05-06T10:24:43.145Z,68.44
2019-05-06T10:25:43.743Z,68.44
2019-05-06T10:26:43.156Z,68.53
2019-05-06T10:27:42.313Z,68.53
2019-05-06T10:28:41.697Z,68.53
2019-05-06T10:29:43.260Z,68.44
2019-05-06T10:30:41.565Z,68.44
2019-05-06T10:31:43.199Z,68.44
2019-05-06T10:32:42.626Z,68.44
2019-05-06T10:33:42.687Z,68.24
2019-05-06T10:34:43.318Z,68.34
2019-05-06T10:35:42.865Z,68.72
2019-05-06T10:36:42.708Z,68.44
2019-05-06T10:37:42.230Z,68.53
2019-05-06T10:38:42.389Z,68.91
2019-05-06T10:39:41.091Z,68.63
2019-05-06T10:40:59.040Z,69.01
2019-05-06T10:41:42.252Z,68.53
2019-05-06T10:42:42.904Z,69.01
2019-05-06T10:43:42.996Z,68.91
2019-05-06T10:44:42.870Z,68.53
2019-05-06T10:45:42.567Z,68.72
2019-05-06T10:46:42.925Z,68.91
2019-05-06T10:47:42.328Z,69.01
2019-05-06T10:48:42.252Z,68.53
2019-05-06T10:49:42.041Z,68.72
2019-05-06T10:50:40.374Z,68.63
2019-05-06T10:51:42.623Z,68.91
2019-05-06T10:52:40.255Z,68.72
2019-05-06T10:53:42.321Z,68.53
2019-05-06T10:54:42.127Z,68.72
2019-05-06T10:55:42.609Z,68.63
2019-05-06T10:56:52.299Z,68.63
2019-05-06T10:57:40.434Z,68.82
2019-05-06T10:58:39.897Z,68.63
2019-05-06T10:59:39.896Z,68.82
2019-05-06T11:00:39.780Z,68.82
2019-05-06T11:01:39.774Z,68.72
2019-05-06T11:02:39.660Z,68.82
2019-05-06T11:03:41.524Z,68.72
2019-05-06T11:04:39.542Z,68.63
2019-05-06T11:05:39.547Z,68.34
2019-05-06T11:06:39.422Z,68.34
2019-05-06T11:07:39.421Z,68.15
2019-05-06T11:08:39.302Z,68.15
2019-05-06T11:09:39.299Z,68.15
2019-05-06T11:10:41.511Z,67.96
2019-05-06T11:11:39.183Z,68.24
2019-05-06T11:12:39.064Z,68.15
2019-05-06T11:13:39.062Z,68.44
2019-05-06T11:14:38.946Z,68.44
2019-05-06T11:15:38.955Z,68.34
2019-05-06T11:16:38.943Z,68.34
2019-05-06T11:17:38.824Z,68.15
2019-05-06T11:18:38.824Z,68.24
2019-05-06T11:19:38.704Z,68.15
2019-05-06T11:20:38.707Z,68.15
2019-05-06T11:21:38.587Z,68.44
2019-05-06T11:22:38.586Z,68.34
2019-05-06T11:23:38.467Z,68.44
2019-05-06T11:24:38.469Z,68.34
2019-05-06T11:25:38.351Z,68.15
2019-05-06T11:26:38.347Z,68.15
2019-05-06T11:27:41.870Z,68.05
2019-05-06T11:28:38.229Z,68.34
2019-05-06T11:29:38.113Z,68.34
2019-05-06T11:30:38.112Z,68.15
2019-05-06T11:31:37.993Z,68.15
2019-05-06T11:32:41.153Z,68.24
2019-05-06T11:33:37.883Z,68.15
2019-05-06T11:34:37.871Z,68.15
2019-05-06T11:35:37.759Z,68.34
2019-05-06T11:36:37.762Z,68.34
2019-05-06T11:37:49.020Z,68.34
2019-05-06T11:38:37.633Z,68.34
2019-05-06T11:39:37.518Z,68.24
2019-05-06T11:40:37.515Z,68.24
2019-05-06T11:41:37.402Z,68.15
2019-05-06T11:42:37.406Z,68.15
2019-05-06T11:43:37.279Z,68.15
2019-05-06T11:44:37.278Z,68.34
2019-05-06T11:45:37.162Z,68.34
2019-05-06T11:46:37.171Z,68.24
2019-05-06T11:47:37.041Z,68.24
2019-05-06T11:48:37.054Z,68.34
2019-05-06T11:49:36.922Z,68.24
2019-05-06T11:50:36.919Z,68.34
2019-05-06T11:51:36.803Z,68.15
2019-05-06T11:52:36.802Z,68.15
2019-05-06T11:53:36.802Z,68.44
2019-05-06T11:54:36.682Z,68.44
2019-05-06T11:55:38.746Z,68.53
2019-05-06T11:56:47.722Z,68.53
2019-05-06T11:57:36.562Z,68.63
2019-05-06T11:58:36.447Z,68.34
2019-05-06T11:59:36.443Z,68.15
2019-05-06T12:00:36.325Z,67.77
2019-05-06T12:01:36.325Z,68.05
2019-05-06T12:02:36.207Z,67.77
2019-05-06T12:03:36.206Z,67.68
2019-05-06T12:04:36.088Z,67.96
2019-05-06T12:05:36.087Z,67.96
2019-05-06T12:06:35.970Z,67.58
2019-05-06T12:07:35.968Z,67.68
2019-05-06T12:08:35.852Z,67.86
2019-05-06T12:09:35.848Z,67.68
2019-05-06T12:10:35.733Z,67.77
2019-05-06T12:11:35.744Z,67.96
2019-05-06T12:12:35.613Z,67.86
2019-05-06T12:13:38.186Z,67.77
2019-05-06T12:14:35.493Z,67.77
2019-05-06T12:15:35.492Z,67.77
2019-05-06T12:16:35.380Z,67.96
2019-05-06T12:17:35.372Z,67.68
2019-05-06T12:18:35.257Z,67.86
2019-05-06T12:19:35.255Z,67.86
2019-05-06T12:20:35.137Z,68.15
2019-05-06T12:21:35.138Z,67.96
2019-05-06T12:22:35.019Z,67.86
2019-05-06T12:23:35.753Z,67.96
2019-05-06T12:24:34.899Z,67.96
2019-05-06T12:25:34.898Z,67.86
2019-05-06T12:26:34.782Z,67.96
2019-05-06T12:27:34.778Z,67.96
2019-05-06T12:28:34.777Z,67.96
2019-05-06T12:29:34.665Z,68.15
2019-05-06T12:30:34.661Z,67.96
2019-05-06T12:31:34.539Z,67.96
2019-05-06T12:32:34.540Z,67.99
2019-05-06T12:33:34.421Z,67.77
2019-05-06T12:34:34.421Z,67.77
2019-05-06T12:35:34.309Z,67.77
2019-05-06T12:36:34.304Z,67.86
2019-05-06T12:37:34.184Z,67.77
2019-05-06T12:38:34.184Z,67.86
2019-05-06T12:39:34.085Z,67.96
2019-05-06T12:40:34.064Z,67.77
2019-05-06T12:41:33.948Z,67.77
2019-05-06T12:42:33.945Z,67.86
2019-05-06T12:43:33.829Z,67.86
2019-05-06T12:44:33.826Z,67.86
2019-05-06T12:45:33.709Z,67.96
2019-05-06T12:46:33.717Z,67.96
2019-05-06T12:47:33.589Z,67.77
2019-05-06T12:48:33.589Z,67.96
2019-05-06T12:49:33.472Z,67.96
2019-05-06T12:50:33.485Z,68.15
2019-05-06T12:51:33.351Z,67.86